createdAt,value
2018-07-11T00:00:07.000Z,100413
2018-07-11T00:01:07.000Z,100413
2018-07-11T00:02:07.000Z,100416
2018-07-11T00:04:07.000Z,100418
2018-07-11T00:06:07.000Z,100419
2018-07-11T00:08:07.000Z,100419
2018-07-11T00:10:07.000Z,100418
2018-07-11T00:11:07.000Z,100414
2018-07-11T00:13:07.000Z,100421
2018-07-11T00:14:07.000Z,100416
2018-07-11T00:15:52.000Z,100412
2018-07-11T00:17:07.000Z,100414
2018-07-11T00:18:52.000Z,100415
2018-07-11T00:20:07.000Z,100414
2018-07-11T00:21:07.000Z,100419
2018-07-11T00:23:07.000Z,100413
2018-07-11T00:25:07.000Z,100413
2018-07-11T00:27:07.000Z,100417
2018-07-11T00:29:07.000Z,100421
2018-07-11T00:30:52.000Z,100417
2018-07-11T00:32:07.000Z,100423
2018-07-11T00:33:07.000Z,100424
2018-07-11T00:34:08.000Z,100428
2018-07-11T00:35:08.000Z,100425
2018-07-11T00:36:08.000Z,100425
2018-07-11T00:37:08.000Z,100423
2018-07-11T00:39:08.000Z,100426
2018-07-11T00:40:08.000Z,100430
2018-07-11T00:42:08.000Z,100427
2018-07-11T00:44:08.000Z,100432
2018-07-11T00:46:08.000Z,100426
2018-07-11T00:47:08.000Z,100429
2018-07-11T00:49:08.000Z,100427
2018-07-11T00:50:08.000Z,100423
2018-07-11T00:52:08.000Z,100419
2018-07-11T00:54:08.000Z,100424
2018-07-11T00:56:08.000Z,100422
2018-07-11T00:58:08.000Z,100428
2018-07-11T00:59:08.000Z,100424
2018-07-11T01:01:08.000Z,100429
2018-07-11T01:02:52.000Z,100426
2018-07-11T01:04:08.000Z,100435
2018-07-11T01:05:08.000Z,100427
2018-07-11T01:07:08.000Z,100426
2018-07-11T01:08:08.000Z,100426
2018-07-11T01:10:08.000Z,100432
2018-07-11T01:12:08.000Z,100432
2018-07-11T01:14:08.000Z,100433
2018-07-11T01:15:08.000Z,100440
2018-07-11T01:17:08.000Z,100436
2018-07-11T01:19:08.000Z,100425
2018-07-11T01:20:08.000Z,100427
2018-07-11T01:21:52.000Z,100421
2018-07-11T01:23:08.000Z,100426
2018-07-11T01:25:08.000Z,100422
2018-07-11T01:26:08.000Z,100425
2018-07-11T01:27:08.000Z,100425
2018-07-11T01:29:08.000Z,100426
2018-07-11T01:31:08.000Z,100424
2018-07-11T01:33:08.000Z,100417
2018-07-11T01:34:08.000Z,100421
2018-07-11T01:35:08.000Z,100425
2018-07-11T01:37:08.000Z,100426
2018-07-11T01:39:08.000Z,100432
2018-07-11T01:41:08.000Z,100438
2018-07-11T01:43:08.000Z,100439
2018-07-11T01:44:08.000Z,100439
2018-07-11T01:46:08.000Z,100439
2018-07-11T01:48:08.000Z,100436
2018-07-11T01:49:08.000Z,100436
2018-07-11T01:51:08.000Z,100433
2018-07-11T01:53:08.000Z,100427
2018-07-11T01:55:08.000Z,100426
2018-07-11T01:57:08.000Z,100437
2018-07-11T01:59:08.000Z,100431
2018-07-11T02:01:08.000Z,100429
2018-07-11T02:02:52.000Z,100435
2018-07-11T02:04:08.000Z,100432
2018-07-11T02:06:08.000Z,100441
2018-07-11T02:08:08.000Z,100437
2018-07-11T02:09:52.000Z,100429
2018-07-11T02:11:08.000Z,100437
2018-07-11T02:12:08.000Z,100439
2018-07-11T02:14:08.000Z,100428
2018-07-11T02:16:08.000Z,100432
2018-07-11T02:17:53.000Z,100428
2018-07-11T02:18:53.000Z,100436
2018-07-11T02:20:08.000Z,100433
2018-07-11T02:21:08.000Z,100426
2018-07-11T02:23:08.000Z,100433
2018-07-11T02:24:08.000Z,100432
2018-07-11T02:26:08.000Z,100433
2018-07-11T02:27:08.000Z,100431
2018-07-11T02:29:08.000Z,100428
2018-07-11T02:31:08.000Z,100426
2018-07-11T02:33:08.000Z,100425
2018-07-11T02:34:53.000Z,100420
2018-07-11T02:36:08.000Z,100421
2018-07-11T02:38:08.000Z,100427
2018-07-11T02:39:08.000Z,100428
2018-07-11T02:41:08.000Z,100427
2018-07-11T02:42:08.000Z,100427
2018-07-11T02:44:08.000Z,100425
2018-07-11T02:45:37.000Z,100422
2018-07-11T02:47:08.000Z,100428
2018-07-11T02:48:52.000Z,100424
2018-07-11T02:50:08.000Z,100425
2018-07-11T02:52:08.000Z,100424
2018-07-11T02:54:08.000Z,100425
2018-07-11T02:56:08.000Z,100426
2018-07-11T02:58:08.000Z,100425
2018-07-11T03:00:08.000Z,100425
2018-07-11T03:01:37.000Z,100424
2018-07-11T03:03:08.000Z,100419
2018-07-11T03:04:08.000Z,100422
2018-07-11T03:06:08.000Z,100421
2018-07-11T03:07:08.000Z,100424
2018-07-11T03:08:52.000Z,100424
2018-07-11T03:10:08.000Z,100423
2018-07-11T03:11:08.000Z,100423
2018-07-11T03:12:08.000Z,100434
2018-07-11T03:14:08.000Z,100437
2018-07-11T03:16:08.000Z,100435
2018-07-11T03:21:08.000Z,100432
2018-07-11T03:22:54.000Z,100431
2018-07-11T03:23:54.000Z,100437
2018-07-11T03:25:54.000Z,100438
2018-07-11T03:27:54.000Z,100440
2018-07-11T03:29:38.000Z,100438
2018-07-11T03:30:54.000Z,100440
2018-07-11T03:31:54.000Z,100439
2018-07-11T03:32:54.000Z,100444
2018-07-11T03:34:54.000Z,100441
2018-07-11T03:36:54.000Z,100436
2018-07-11T03:37:54.000Z,100437
2018-07-11T03:39:54.000Z,100442
2018-07-11T03:41:54.000Z,100438
2018-07-11T03:42:54.000Z,100445
2018-07-11T03:43:53.000Z,100441
2018-07-11T03:45:53.000Z,100449
2018-07-11T03:46:53.000Z,100453
2018-07-11T03:48:53.000Z,100452
2018-07-11T03:50:53.000Z,100447
2018-07-11T03:51:53.000Z,100448
2018-07-11T03:53:53.000Z,100448
2018-07-11T03:54:53.000Z,100453
2018-07-11T03:56:53.000Z,100452
2018-07-11T03:58:53.000Z,100454
2018-07-11T04:00:53.000Z,100447
2018-07-11T04:01:53.000Z,100449
2018-07-11T04:03:23.000Z,100458
2018-07-11T04:04:53.000Z,100460
2018-07-11T04:06:53.000Z,100459
2018-07-11T04:08:53.000Z,100460
2018-07-11T04:10:53.000Z,100462
2018-07-11T04:12:53.000Z,100463
2018-07-11T04:13:53.000Z,100465
2018-07-11T04:14:53.000Z,100460
2018-07-11T04:16:53.000Z,100453
2018-07-11T04:18:53.000Z,100451
2018-07-11T04:19:53.000Z,100460
2018-07-11T04:21:53.000Z,100455
2018-07-11T04:23:38.000Z,100455
2018-07-11T04:24:53.000Z,100463
2018-07-11T04:25:53.000Z,100457
2018-07-11T04:27:38.000Z,100464
2018-07-11T04:28:53.000Z,100460
2018-07-11T04:30:53.000Z,100463
2018-07-11T04:32:23.000Z,100467
2018-07-11T04:33:53.000Z,100464
2018-07-11T04:35:38.000Z,100366
2018-07-11T04:37:53.000Z,100463
2018-07-11T04:38:53.000Z,100462
2018-07-11T04:40:38.000Z,100461
2018-07-11T04:41:53.000Z,100461
2018-07-11T04:43:53.000Z,100456
2018-07-11T04:45:53.000Z,100455
2018-07-11T04:47:38.000Z,100458
2018-07-11T04:48:53.000Z,100456
2018-07-11T04:49:53.000Z,100459
2018-07-11T04:51:53.000Z,100457
2018-07-11T04:53:53.000Z,100455
2018-07-11T04:55:53.000Z,100457
2018-07-11T04:56:53.000Z,100458
2018-07-11T04:58:53.000Z,100460
2018-07-11T04:59:53.000Z,100461
2018-07-11T05:00:53.000Z,100459
2018-07-11T05:02:53.000Z,100462
2018-07-11T05:04:53.000Z,100465
2018-07-11T05:06:38.000Z,100476
2018-07-11T05:07:53.000Z,100472
2018-07-11T05:08:53.000Z,100468
2018-07-11T05:09:53.000Z,100467
2018-07-11T05:10:53.000Z,100469
2018-07-11T05:12:53.000Z,100468
2018-07-11T05:13:53.000Z,100471
2018-07-11T05:15:53.000Z,100467
2018-07-11T05:17:53.000Z,100462
2018-07-11T05:18:53.000Z,100464
2018-07-11T05:20:53.000Z,100464
2018-07-11T05:22:53.000Z,100461
2018-07-11T05:24:53.000Z,100459
2018-07-11T05:26:53.000Z,100462
2018-07-11T05:28:53.000Z,100463
2018-07-11T05:29:53.000Z,100465
2018-07-11T05:31:38.000Z,100462
2018-07-11T05:32:53.000Z,100465
2018-07-11T05:33:53.000Z,100468
2018-07-11T05:34:53.000Z,100468
2018-07-11T05:35:53.000Z,100469
2018-07-11T05:39:56.000Z,100470
2018-07-11T05:41:40.000Z,100463
2018-07-11T05:42:56.000Z,100460
2018-07-11T05:43:56.000Z,100468
2018-07-11T05:44:56.000Z,100468
2018-07-11T05:46:56.000Z,100465
2018-07-11T05:48:25.000Z,100471
2018-07-11T05:49:56.000Z,100461
2018-07-11T05:50:56.000Z,100463
2018-07-11T05:52:56.000Z,100462
2018-07-11T05:54:56.000Z,100466
2018-07-11T05:56:56.000Z,100465
2018-07-11T05:58:41.000Z,100470
2018-07-11T05:59:56.000Z,100472
2018-07-11T06:00:56.000Z,100475
2018-07-11T06:02:56.000Z,100481
2018-07-11T06:04:56.000Z,100482
2018-07-11T06:05:56.000Z,100480
2018-07-11T06:07:56.000Z,100491
2018-07-11T06:09:56.000Z,100491
2018-07-11T06:10:56.000Z,100496
2018-07-11T06:12:56.000Z,100497
2018-07-11T06:14:56.000Z,100495
2018-07-11T06:16:56.000Z,100500
2018-07-11T06:18:41.000Z,100500
2018-07-11T06:19:56.000Z,100501
2018-07-11T06:20:56.000Z,100500
2018-07-11T06:22:56.000Z,100501
2018-07-11T06:24:56.000Z,100506
2018-07-11T06:26:56.000Z,100509
2018-07-11T06:28:41.000Z,100500
2018-07-11T06:29:56.000Z,100501
2018-07-11T06:31:41.000Z,100497
2018-07-11T06:32:56.000Z,100495
2018-07-11T06:34:56.000Z,100497
2018-07-11T06:36:56.000Z,100497
2018-07-11T06:37:56.000Z,100495
2018-07-11T06:39:41.000Z,100496
2018-07-11T06:40:56.000Z,100501
2018-07-11T06:42:41.000Z,100498
2018-07-11T06:43:56.000Z,100503
2018-07-11T06:45:56.000Z,100507
2018-07-11T06:47:56.000Z,100507
2018-07-11T06:49:56.000Z,100508
2018-07-11T06:51:56.000Z,100512
2018-07-11T06:53:56.000Z,100509
2018-07-11T06:54:56.000Z,100511
2018-07-11T06:56:56.000Z,100507
2018-07-11T06:57:56.000Z,100510
2018-07-11T06:59:56.000Z,100509
2018-07-11T07:01:56.000Z,100499
2018-07-11T07:02:56.000Z,100502
2018-07-11T07:04:56.000Z,100501
2018-07-11T07:05:56.000Z,100494
2018-07-11T07:06:56.000Z,100497
2018-07-11T07:08:56.000Z,100494
2018-07-11T07:10:56.000Z,100496
2018-07-11T07:11:56.000Z,100499
2018-07-11T07:13:41.000Z,100503
2018-07-11T07:14:56.000Z,100503
2018-07-11T07:16:56.000Z,100506
2018-07-11T07:17:56.000Z,100505
2018-07-11T07:19:56.000Z,100510
2018-07-11T07:21:56.000Z,100506
2018-07-11T07:22:56.000Z,100508
2018-07-11T07:24:56.000Z,100506
2018-07-11T07:26:41.000Z,100504
2018-07-11T07:27:56.000Z,100502
2018-07-11T07:29:56.000Z,100500
2018-07-11T07:30:56.000Z,100501
2018-07-11T07:32:56.000Z,100496
2018-07-11T07:33:56.000Z,100494
2018-07-11T07:35:56.000Z,100495
2018-07-11T07:36:56.000Z,100500
2018-07-11T07:38:56.000Z,100496
2018-07-11T07:40:56.000Z,100489
2018-07-11T07:42:56.000Z,100493
2018-07-11T07:44:56.000Z,100489
2018-07-11T07:45:56.000Z,100489
2018-07-11T07:47:56.000Z,100486
2018-07-11T07:49:56.000Z,100485
2018-07-11T07:51:56.000Z,100488
2018-07-11T07:53:25.000Z,100489
2018-07-11T07:54:56.000Z,100487
2018-07-11T07:55:56.000Z,100484
2018-07-11T07:56:56.000Z,100482
2018-07-11T07:58:57.000Z,100484
2018-07-11T07:59:57.000Z,100488
2018-07-11T08:01:57.000Z,100485
2018-07-11T08:02:57.000Z,100483
2018-07-11T08:04:41.000Z,100484
2018-07-11T08:05:57.000Z,100484
2018-07-11T08:07:41.000Z,100480
2018-07-11T08:08:57.000Z,100482
2018-07-11T08:10:57.000Z,100479
2018-07-11T08:11:57.000Z,100483
2018-07-11T08:13:57.000Z,100479
2018-07-11T08:15:41.000Z,100482
2018-07-11T08:16:57.000Z,100482
2018-07-11T08:17:57.000Z,100483
2018-07-11T08:18:57.000Z,100483
2018-07-11T08:20:57.000Z,100488
2018-07-11T08:21:57.000Z,100481
2018-07-11T08:22:57.000Z,100487
2018-07-11T08:24:57.000Z,100494
2018-07-11T08:26:57.000Z,100493
2018-07-11T08:27:57.000Z,100486
2018-07-11T08:29:57.000Z,100482
2018-07-11T08:30:57.000Z,100491
2018-07-11T08:32:57.000Z,100486
2018-07-11T08:34:57.000Z,100489
2018-07-11T08:36:57.000Z,100482
2018-07-11T08:38:57.000Z,100485
2018-07-11T08:39:57.000Z,100485
2018-07-11T08:41:57.000Z,100481
2018-07-11T08:42:57.000Z,100483
2018-07-11T08:44:41.000Z,100475
2018-07-11T08:45:57.000Z,100473
2018-07-11T08:47:57.000Z,100468
2018-07-11T08:49:57.000Z,100466
2018-07-11T08:51:57.000Z,100467
2018-07-11T08:52:57.000Z,100472
2018-07-11T08:54:57.000Z,100472
2018-07-11T08:56:41.000Z,100472
2018-07-11T08:57:57.000Z,100466
2018-07-11T08:59:57.000Z,100462
2018-07-11T09:01:57.000Z,100471
2018-07-11T09:02:57.000Z,100468
2018-07-11T09:04:57.000Z,100470
2018-07-11T09:06:57.000Z,100473
2018-07-11T09:07:57.000Z,100471
2018-07-11T09:09:41.000Z,100477
2018-07-11T09:10:57.000Z,100478
2018-07-11T09:12:26.000Z,100479
2018-07-11T09:13:57.000Z,100481
2018-07-11T09:15:57.000Z,100480
2018-07-11T09:17:57.000Z,100477
2018-07-11T09:19:57.000Z,100481
2018-07-11T09:20:57.000Z,100482
2018-07-11T09:21:57.000Z,100482
2018-07-11T09:23:57.000Z,100482
2018-07-11T09:25:57.000Z,100478
2018-07-11T09:27:57.000Z,100471
2018-07-11T09:28:57.000Z,100469
2018-07-11T09:30:57.000Z,100470
2018-07-11T09:32:57.000Z,100470
2018-07-11T09:33:57.000Z,100470
2018-07-11T09:34:57.000Z,100470
2018-07-11T09:36:57.000Z,100460
2018-07-11T09:38:26.000Z,100454
2018-07-11T09:39:57.000Z,100450
2018-07-11T09:41:26.000Z,100457
2018-07-11T09:42:57.000Z,100457
2018-07-11T09:43:57.000Z,100461
2018-07-11T09:45:41.000Z,100448
2018-07-11T09:46:57.000Z,100455
2018-07-11T09:48:57.000Z,100449
2018-07-11T09:49:57.000Z,100447
2018-07-11T09:51:41.000Z,100446
2018-07-11T09:52:57.000Z,100441
2018-07-11T09:53:57.000Z,100437
2018-07-11T09:55:57.000Z,100441
2018-07-11T09:56:57.000Z,100449
2018-07-11T09:58:57.000Z,100443
2018-07-11T09:59:57.000Z,100444
2018-07-11T10:01:57.000Z,100442
2018-07-11T10:03:57.000Z,100437
2018-07-11T10:05:56.000Z,100441
2018-07-11T10:06:56.000Z,100435
2018-07-11T10:08:56.000Z,100435
2018-07-11T10:10:56.000Z,100431
2018-07-11T10:11:56.000Z,100431
2018-07-11T10:13:56.000Z,100423
2018-07-11T10:15:56.000Z,100423
2018-07-11T10:16:56.000Z,100420
2018-07-11T10:18:56.000Z,100422
2018-07-11T10:20:56.000Z,100418
2018-07-11T10:21:56.000Z,100416
2018-07-11T10:23:41.000Z,100416
2018-07-11T10:24:56.000Z,100416
2018-07-11T10:26:56.000Z,100414
2018-07-11T10:28:56.000Z,100410
2018-07-11T10:30:56.000Z,100409
2018-07-11T10:32:41.000Z,100412
2018-07-11T10:33:56.000Z,100415
2018-07-11T10:35:56.000Z,100414
2018-07-11T10:37:56.000Z,100405
2018-07-11T10:39:56.000Z,100405
2018-07-11T10:41:56.000Z,100406
2018-07-11T10:42:56.000Z,100400
2018-07-11T10:44:41.000Z,100403
2018-07-11T10:45:56.000Z,100397
2018-07-11T10:46:56.000Z,100398
2018-07-11T10:48:56.000Z,100398
2018-07-11T10:49:56.000Z,100391
2018-07-11T10:51:56.000Z,100402
2018-07-11T10:52:56.000Z,100402
2018-07-11T10:53:56.000Z,100399
2018-07-11T10:55:56.000Z,100398
2018-07-11T10:57:56.000Z,100396
2018-07-11T10:59:56.000Z,100393
2018-07-11T11:00:56.000Z,100397
2018-07-11T11:02:56.000Z,100396
2018-07-11T11:03:56.000Z,100391
2018-07-11T11:07:57.000Z,100391
2018-07-11T11:09:42.000Z,100392
2018-07-11T11:11:42.000Z,100387
2018-07-11T11:12:42.000Z,100390
2018-07-11T11:14:42.000Z,100393
2018-07-11T11:15:42.000Z,100391
2018-07-11T11:17:42.000Z,100383
2018-07-11T11:18:42.000Z,100374
2018-07-11T11:19:42.000Z,100381
2018-07-11T11:20:42.000Z,100378
2018-07-11T11:22:42.000Z,100378
2018-07-11T11:24:27.000Z,100375
2018-07-11T11:25:42.000Z,100375
2018-07-11T11:26:42.000Z,100369
2018-07-11T11:27:42.000Z,100375
2018-07-11T11:29:42.000Z,100372
2018-07-11T11:30:42.000Z,100377
2018-07-11T11:32:42.000Z,100376
2018-07-11T11:34:42.000Z,100373
2018-07-11T11:36:42.000Z,100363
2018-07-11T11:37:42.000Z,100367
2018-07-11T11:39:42.000Z,100364
2018-07-11T11:41:27.000Z,100363
2018-07-11T11:42:42.000Z,100368
2018-07-11T11:44:27.000Z,100361
2018-07-11T11:45:42.000Z,100365
2018-07-11T11:47:42.000Z,100370
2018-07-11T11:48:42.000Z,100368
2018-07-11T11:50:42.000Z,100364
2018-07-11T11:51:42.000Z,100371
2018-07-11T11:52:42.000Z,100361
2018-07-11T11:54:27.000Z,100367
2018-07-11T11:55:42.000Z,100363
2018-07-11T11:56:42.000Z,100368
2018-07-11T11:58:27.000Z,100366
2018-07-11T11:59:42.000Z,100366
2018-07-11T12:01:42.000Z,100363
2018-07-11T12:03:42.000Z,100366
2018-07-11T12:05:27.000Z,100376
2018-07-11T12:06:42.000Z,100373
2018-07-11T12:08:42.000Z,100383
2018-07-11T12:09:42.000Z,100373
2018-07-11T12:11:27.000Z,100384
2018-07-11T12:12:43.000Z,100378
2018-07-11T12:14:28.000Z,100379
2018-07-11T12:15:43.000Z,100388
2018-07-11T12:17:43.000Z,100388
2018-07-11T12:19:43.000Z,100390
2018-07-11T12:20:43.000Z,100397
2018-07-11T12:21:43.000Z,100389
2018-07-11T12:23:43.000Z,100393
2018-07-11T12:25:43.000Z,100388
2018-07-11T12:27:43.000Z,100390
2018-07-11T12:28:43.000Z,100392
2018-07-11T12:30:43.000Z,100394
2018-07-11T12:32:28.000Z,100391
2018-07-11T12:33:43.000Z,100392
2018-07-11T12:35:43.000Z,100395
2018-07-11T12:37:43.000Z,100391
2018-07-11T12:38:43.000Z,100398
2018-07-11T12:40:43.000Z,100402
2018-07-11T12:42:28.000Z,100401
2018-07-11T12:43:43.000Z,100407
2018-07-11T12:45:12.000Z,100402
2018-07-11T12:46:43.000Z,100406
2018-07-11T12:47:43.000Z,100402
2018-07-11T12:49:43.000Z,100398
2018-07-11T12:50:43.000Z,100400
2018-07-11T12:52:43.000Z,100398
2018-07-11T12:53:43.000Z,100405
2018-07-11T12:55:43.000Z,100396
2018-07-11T12:57:43.000Z,100397
2018-07-11T12:59:43.000Z,100396
2018-07-11T13:00:43.000Z,100394
2018-07-11T13:02:28.000Z,100391
2018-07-11T13:03:43.000Z,100395
2018-07-11T13:05:43.000Z,100394
2018-07-11T13:06:43.000Z,100392
2018-07-11T13:08:43.000Z,100387
2018-07-11T13:10:43.000Z,100382
2018-07-11T13:12:43.000Z,100376
2018-07-11T13:14:43.000Z,100382
2018-07-11T13:16:42.000Z,100376
2018-07-11T13:17:42.000Z,100377
2018-07-11T13:18:42.000Z,100377
2018-07-11T13:19:42.000Z,100375
2018-07-11T13:21:42.000Z,100372
2018-07-11T13:23:42.000Z,100368
2018-07-11T13:25:42.000Z,100365
2018-07-11T13:27:27.000Z,100367
2018-07-11T13:28:42.000Z,100370
2018-07-11T13:29:42.000Z,100369
2018-07-11T13:31:42.000Z,100369
2018-07-11T13:33:42.000Z,100370
2018-07-11T13:34:42.000Z,100373
2018-07-11T13:36:42.000Z,100370
2018-07-11T13:38:42.000Z,100375
2018-07-11T13:39:42.000Z,100372
2018-07-11T13:41:42.000Z,100373
2018-07-11T13:43:42.000Z,100367
2018-07-11T13:45:42.000Z,100369
2018-07-11T13:47:42.000Z,100359
2018-07-11T13:49:42.000Z,100365
2018-07-11T13:50:42.000Z,100367
2018-07-11T13:52:42.000Z,100364
2018-07-11T13:53:42.000Z,100365
2018-07-11T13:55:42.000Z,100371
2018-07-11T13:57:42.000Z,100371
2018-07-11T13:59:42.000Z,100378
2018-07-11T14:01:42.000Z,100376
2018-07-11T14:03:42.000Z,100387
2018-07-11T14:05:42.000Z,100388
2018-07-11T14:07:27.000Z,100388
2018-07-11T14:08:42.000Z,100383
2018-07-11T14:09:42.000Z,100390
2018-07-11T14:11:42.000Z,100385
2018-07-11T14:13:42.000Z,100382
2018-07-11T14:14:42.000Z,100381
2018-07-11T14:15:42.000Z,100381
2018-07-11T14:16:42.000Z,100378
2018-07-11T14:18:42.000Z,100378
2018-07-11T14:19:42.000Z,100376
2018-07-11T14:21:42.000Z,100373
2018-07-11T14:22:42.000Z,100371
2018-07-11T14:24:42.000Z,100362
2018-07-11T14:26:42.000Z,100358
2018-07-11T14:27:42.000Z,100358
2018-07-11T14:29:42.000Z,100363
2018-07-11T14:31:27.000Z,100364
2018-07-11T14:32:42.000Z,100364
2018-07-11T14:33:42.000Z,100363
2018-07-11T14:35:27.000Z,100364
2018-07-11T14:36:42.000Z,100353
2018-07-11T14:38:42.000Z,100361
2018-07-11T14:39:42.000Z,100366
2018-07-11T14:40:42.000Z,100361
2018-07-11T14:42:42.000Z,100360
2018-07-11T14:44:42.000Z,100361
2018-07-11T14:46:42.000Z,100365
2018-07-11T14:47:42.000Z,100364
2018-07-11T14:49:27.000Z,100368
2018-07-11T14:50:42.000Z,100363
2018-07-11T14:51:42.000Z,100361
2018-07-11T14:53:42.000Z,100360
2018-07-11T14:55:27.000Z,100363
2018-07-11T14:56:42.000Z,100362
2018-07-11T14:57:42.000Z,100367
2018-07-11T14:58:42.000Z,100371
2018-07-11T15:00:42.000Z,100367
2018-07-11T15:01:42.000Z,100366
2018-07-11T15:03:42.000Z,100364
2018-07-11T15:05:42.000Z,100361
2018-07-11T15:07:42.000Z,100364
2018-07-11T15:08:42.000Z,100360
2018-07-11T15:09:42.000Z,100354
2018-07-11T15:11:27.000Z,100357
2018-07-11T15:12:42.000Z,100355
2018-07-11T15:14:42.000Z,100355
2018-07-11T15:16:27.000Z,100357
2018-07-11T15:17:42.000Z,100355
2018-07-11T15:19:42.000Z,100352
2018-07-11T15:20:42.000Z,100347
2018-07-11T15:22:42.000Z,100349
2018-07-11T15:24:13.000Z,100352
2018-07-11T15:25:43.000Z,100342
2018-07-11T15:27:43.000Z,100344
2018-07-11T15:28:43.000Z,100348
2018-07-11T15:29:43.000Z,100349
2018-07-11T15:31:43.000Z,100338
2018-07-11T15:33:43.000Z,100337
2018-07-11T15:34:43.000Z,100339
2018-07-11T15:36:43.000Z,100336
2018-07-11T15:37:43.000Z,100340
2018-07-11T15:39:43.000Z,100342
2018-07-11T15:41:28.000Z,100338
2018-07-11T15:42:43.000Z,100345
2018-07-11T15:44:43.000Z,100347
2018-07-11T15:46:43.000Z,100344
2018-07-11T15:48:43.000Z,100344
2018-07-11T15:49:43.000Z,100343
2018-07-11T15:51:43.000Z,100345
2018-07-11T15:53:43.000Z,100346
2018-07-11T15:55:28.000Z,100342
2018-07-11T15:56:43.000Z,100350
2018-07-11T15:58:43.000Z,100340
2018-07-11T16:00:43.000Z,100348
2018-07-11T16:02:43.000Z,100334
2018-07-11T16:03:43.000Z,100336
2018-07-11T16:04:43.000Z,100335
2018-07-11T16:06:43.000Z,100339
2018-07-11T16:08:43.000Z,100334
2018-07-11T16:10:43.000Z,100340
2018-07-11T16:11:43.000Z,100342
2018-07-11T16:13:43.000Z,100333
2018-07-11T16:14:43.000Z,100334
2018-07-11T16:16:43.000Z,100334
2018-07-11T16:18:28.000Z,100333
2018-07-11T16:19:43.000Z,100332
2018-07-11T16:21:43.000Z,100333
2018-07-11T16:22:43.000Z,100336
2018-07-11T16:24:43.000Z,100328
2018-07-11T16:26:43.000Z,100330
2018-07-11T16:27:43.000Z,100332
2018-07-11T16:29:43.000Z,100333
2018-07-11T16:31:43.000Z,100335
2018-07-11T16:32:43.000Z,100326
2018-07-11T16:34:43.000Z,100331
2018-07-11T16:36:43.000Z,100329
2018-07-11T16:37:43.000Z,100332
2018-07-11T16:38:43.000Z,100328
2018-07-11T16:40:43.000Z,100326
2018-07-11T16:41:43.000Z,100324
2018-07-11T16:43:43.000Z,100323
2018-07-11T16:45:27.000Z,100320
2018-07-11T16:46:43.000Z,100322
2018-07-11T16:48:43.000Z,100322
2018-07-11T16:50:43.000Z,100328
2018-07-11T16:52:43.000Z,100323
2018-07-11T16:54:43.000Z,100323
2018-07-11T16:56:43.000Z,100324
2018-07-11T16:58:43.000Z,100326
2018-07-11T16:59:43.000Z,100327
2018-07-11T17:00:43.000Z,100325
2018-07-11T17:02:43.000Z,100330
2018-07-11T17:04:43.000Z,100328
2018-07-11T17:06:43.000Z,100328
2018-07-11T17:08:27.000Z,100325
2018-07-11T17:09:43.000Z,100328
2018-07-11T17:10:43.000Z,100325
2018-07-11T17:12:43.000Z,100324
2018-07-11T17:13:43.000Z,100327
2018-07-11T17:15:27.000Z,100328
2018-07-11T17:16:43.000Z,100337
2018-07-11T17:18:43.000Z,100338
2018-07-11T17:19:43.000Z,100336
2018-07-11T17:20:43.000Z,100335
2018-07-11T17:22:43.000Z,100336
2018-07-11T17:24:43.000Z,100341
2018-07-11T17:25:43.000Z,100338
2018-07-11T17:27:43.000Z,100336
2018-07-11T17:28:43.000Z,100334
2018-07-11T17:29:43.000Z,100337
2018-07-11T17:31:27.000Z,100340
2018-07-11T17:32:42.000Z,100336
2018-07-11T17:34:42.000Z,100346
2018-07-11T17:35:42.000Z,100344
2018-07-11T17:37:42.000Z,100345
2018-07-11T17:39:42.000Z,100342
2018-07-11T17:41:42.000Z,100345
2018-07-11T17:43:42.000Z,100349
2018-07-11T17:45:42.000Z,100345
2018-07-11T17:47:27.000Z,100346
2018-07-11T17:48:42.000Z,100350
2018-07-11T17:49:42.000Z,100353
2018-07-11T17:51:27.000Z,100347
2018-07-11T17:52:42.000Z,100346
2018-07-11T17:54:42.000Z,100348
2018-07-11T17:55:42.000Z,100344
2018-07-11T17:57:42.000Z,100350
2018-07-11T17:59:42.000Z,100345
2018-07-11T18:01:42.000Z,100345
2018-07-11T18:03:42.000Z,100349
2018-07-11T18:04:42.000Z,100354
2018-07-11T18:06:27.000Z,100349
2018-07-11T18:07:42.000Z,100350
2018-07-11T18:08:42.000Z,100346
2018-07-11T18:09:42.000Z,100348
2018-07-11T18:11:27.000Z,100345
2018-07-11T18:12:42.000Z,100345
2018-07-11T18:14:42.000Z,100344
2018-07-11T18:15:42.000Z,100346
2018-07-11T18:17:42.000Z,100346
2018-07-11T18:18:42.000Z,100340
2018-07-11T18:20:42.000Z,100349
2018-07-11T18:22:42.000Z,100348
2018-07-11T18:23:42.000Z,100346
2018-07-11T18:25:12.000Z,100353
2018-07-11T18:26:42.000Z,100350
2018-07-11T18:27:42.000Z,100352
2018-07-11T18:28:42.000Z,100357
2018-07-11T18:30:42.000Z,100348
2018-07-11T18:32:42.000Z,100346
2018-07-11T18:34:43.000Z,100351
2018-07-11T18:36:43.000Z,100347
2018-07-11T18:37:43.000Z,100347
2018-07-11T18:39:43.000Z,100350
2018-07-11T18:40:43.000Z,100345
2018-07-11T18:42:43.000Z,100347
2018-07-11T18:44:43.000Z,100345
2018-07-11T18:45:43.000Z,100346
2018-07-11T18:47:27.000Z,100343
2018-07-11T18:48:43.000Z,100345
2018-07-11T18:49:43.000Z,100351
2018-07-11T18:51:43.000Z,100351
2018-07-11T18:53:43.000Z,100354
2018-07-11T18:55:27.000Z,100360
2018-07-11T18:56:43.000Z,100362
2018-07-11T18:57:43.000Z,100373
2018-07-11T18:58:43.000Z,100372
2018-07-11T19:00:43.000Z,100367
2018-07-11T19:01:43.000Z,100367
2018-07-11T19:02:43.000Z,100366
2018-07-11T19:04:43.000Z,100363
2018-07-11T19:06:43.000Z,100376
2018-07-11T19:07:43.000Z,100368
2018-07-11T19:09:43.000Z,100369
2018-07-11T19:10:43.000Z,100371
2018-07-11T19:12:43.000Z,100369
2018-07-11T19:14:43.000Z,100370
2018-07-11T19:16:27.000Z,100372
2018-07-11T19:17:43.000Z,100364
2018-07-11T19:19:27.000Z,100376
2018-07-11T19:20:43.000Z,100376
2018-07-11T19:21:43.000Z,100380
2018-07-11T19:22:43.000Z,100372
2018-07-11T19:24:43.000Z,100380
2018-07-11T19:25:43.000Z,100390
2018-07-11T19:26:43.000Z,100380
2018-07-11T19:28:43.000Z,100386
2018-07-11T19:29:43.000Z,100383
2018-07-11T19:31:43.000Z,100394
2018-07-11T19:32:43.000Z,100397
2018-07-11T19:34:43.000Z,100393
2018-07-11T19:36:43.000Z,100400
2018-07-11T19:37:42.000Z,100399
2018-07-11T19:39:42.000Z,100400
2018-07-11T19:41:42.000Z,100403
2018-07-11T19:42:42.000Z,100406
2018-07-11T19:44:42.000Z,100408
2018-07-11T19:45:42.000Z,100404
2018-07-11T19:47:42.000Z,100397
2018-07-11T19:48:42.000Z,100398
2018-07-11T19:50:42.000Z,100399
2018-07-11T19:52:42.000Z,100400
2018-07-11T19:54:42.000Z,100403